sensor_id;sensor_type;location;lat;lon;timestamp;P1;durP1;ratioP1;P2;durP2;ratioP2
22539;SDS011;11436;50.860;4.334;2022-07-01T00:02:15;12.75;;;6.70;;
22539;SDS011;11436;50.860;4.334;2022-07-01T00:04:40;14.23;;;6.55;;
22539;SDS011;11436;50.860;4.334;2022-07-01T00:07:06;16.05;;;6.78;;
22539;SDS011;11436;50.860;4.334;2022-07-01T00:09:32;14.90;;;6.88;;
22539;SDS011;11436;50.860;4.334;2022-07-01T00:11:57;14.93;;;7.72;;
22539;SDS011;11436;50.860;4.334;2022-07-01T00:14:23;12.93;;;6.75;;
22539;SDS011;11436;50.860;4.334;2022-07-01T00:16:49;10.63;;;7.20;;
22539;SDS011;11436;50.860;4.334;2022-07-01T00:19:16;14.77;;;6.75;;
22539;SDS011;11436;50.860;4.334;2022-07-01T00:21:42;12.15;;;6.97;;
22539;SDS011;11436;50.860;4.334;2022-07-01T00:24:08;14.95;;;6.25;;
22539;SDS011;11436;50.860;4.334;2022-07-01T00:26:33;10.90;;;6.43;;
22539;SDS011;11436;50.860;4.334;2022-07-01T00:28:59;11.95;;;6.50;;
22539;SDS011;11436;50.860;4.334;2022-07-01T00:31:25;12.80;;;6.60;;
22539;SDS011;11436;50.860;4.334;2022-07-01T00:33:50;12.75;;;6.80;;
22539;SDS011;11436;50.860;4.334;2022-07-01T00:36:16;10.27;;;6.80;;
22539;SDS011;11436;50.860;4.334;2022-07-01T00:38:42;14.88;;;7.90;;
22539;SDS011;11436;50.860;4.334;2022-07-01T00:41:07;18.83;;;8.30;;
22539;SDS011;11436;50.860;4.334;2022-07-01T00:43:36;15.98;;;9.57;;
22539;SDS011;11436;50.860;4.334;2022-07-01T00:46:04;19.95;;;8.10;;
22539;SDS011;11436;50.860;4.334;2022-07-01T00:48:31;14.52;;;7.97;;
22539;SDS011;11436;50.860;4.334;2022-07-01T00:50:58;17.70;;;7.78;;
22539;SDS011;11436;50.860;4.334;2022-07-01T00:53:24;19.13;;;8.27;;
22539;SDS011;11436;50.860;4.334;2022-07-01T00:55:50;20.52;;;8.30;;
22539;SDS011;11436;50.860;4.334;2022-07-01T00:58:16;15.48;;;8.18;;
22539;SDS011;11436;50.860;4.334;2022-07-01T01:00:41;12.75;;;8.38;;
22539;SDS011;11436;50.860;4.334;2022-07-01T01:03:07;19.48;;;8.98;;
22539;SDS011;11436;50.860;4.334;2022-07-01T01:05:36;16.73;;;9.05;;
22539;SDS011;11436;50.860;4.334;2022-07-01T01:08:02;18.70;;;9.15;;
22539;SDS011;11436;50.860;4.334;2022-07-01T01:10:29;19.25;;;8.48;;
22539;SDS011;11436;50.860;4.334;2022-07-01T01:12:56;18.80;;;9.00;;
22539;SDS011;11436;50.860;4.334;2022-07-01T01:15:22;16.77;;;9.18;;
22539;SDS011;11436;50.860;4.334;2022-07-01T01:17:48;23.85;;;9.45;;
22539;SDS011;11436;50.860;4.334;2022-07-01T01:20:17;20.17;;;10.60;;
22539;SDS011;11436;50.860;4.334;2022-07-01T01:22:44;16.88;;;9.60;;
22539;SDS011;11436;50.860;4.334;2022-07-01T01:25:12;19.73;;;10.05;;
22539;SDS011;11436;50.860;4.334;2022-07-01T01:27:37;21.35;;;9.63;;
22539;SDS011;11436;50.860;4.334;2022-07-01T01:30:04;17.05;;;10.05;;
22539;SDS011;11436;50.860;4.334;2022-07-01T01:32:31;22.75;;;10.32;;
22539;SDS011;11436;50.860;4.334;2022-07-01T01:34:56;24.88;;;10.88;;
22539;SDS011;11436;50.860;4.334;2022-07-01T01:37:22;21.83;;;9.45;;
22539;SDS011;11436;50.860;4.334;2022-07-01T01:39:48;25.52;;;10.95;;
22539;SDS011;11436;50.860;4.334;2022-07-01T01:42:13;20.60;;;9.73;;
22539;SDS011;11436;50.860;4.334;2022-07-01T01:44:39;19.80;;;9.60;;
22539;SDS011;11436;50.860;4.334;2022-07-01T01:47:05;19.98;;;10.40;;
22539;SDS011;11436;50.860;4.334;2022-07-01T01:49:31;19.67;;;8.88;;
22539;SDS011;11436;50.860;4.334;2022-07-01T01:51:57;18.20;;;9.52;;
22539;SDS011;11436;50.860;4.334;2022-07-01T01:54:24;19.40;;;9.80;;
22539;SDS011;11436;50.860;4.334;2022-07-01T01:56:50;19.75;;;9.55;;
22539;SDS011;11436;50.860;4.334;2022-07-01T01:59:16;19.33;;;9.40;;
22539;SDS011;11436;50.860;4.334;2022-07-01T02:01:42;21.58;;;9.60;;
22539;SDS011;11436;50.860;4.334;2022-07-01T02:04:08;17.45;;;9.32;;
22539;SDS011;11436;50.860;4.334;2022-07-01T02:06:34;19.65;;;9.48;;
22539;SDS011;11436;50.860;4.334;2022-07-01T02:08:59;18.90;;;10.05;;
22539;SDS011;11436;50.860;4.334;2022-07-01T02:11:25;15.32;;;8.85;;
22539;SDS011;11436;50.860;4.334;2022-07-01T02:13:51;19.33;;;8.88;;
22539;SDS011;11436;50.860;4.334;2022-07-01T02:16:17;17.15;;;8.70;;
22539;SDS011;11436;50.860;4.334;2022-07-01T02:18:43;19.70;;;8.23;;
22539;SDS011;11436;50.860;4.334;2022-07-01T02:21:09;17.65;;;8.70;;
22539;SDS011;11436;50.860;4.334;2022-07-01T02:23:35;17.38;;;8.98;;
22539;SDS011;11436;50.860;4.334;2022-07-01T02:26:01;19.55;;;8.70;;
22539;SDS011;11436;50.860;4.334;2022-07-01T02:28:26;20.85;;;9.55;;
22539;SDS011;11436;50.860;4.334;2022-07-01T02:30:52;20.27;;;9.10;;
22539;SDS011;11436;50.860;4.334;2022-07-01T02:33:18;22.15;;;8.45;;
22539;SDS011;11436;50.860;4.334;2022-07-01T02:35:43;16.48;;;8.52;;
22539;SDS011;11436;50.860;4.334;2022-07-01T02:38:09;17.65;;;9.25;;
22539;SDS011;11436;50.860;4.334;2022-07-01T02:40:35;18.48;;;8.90;;
22539;SDS011;11436;50.860;4.334;2022-07-01T02:43:05;22.73;;;8.82;;
22539;SDS011;11436;50.860;4.334;2022-07-01T02:45:31;15.82;;;8.20;;
22539;SDS011;11436;50.860;4.334;2022-07-01T02:47:57;11.02;;;7.85;;
22539;SDS011;11436;50.860;4.334;2022-07-01T02:50:22;16.70;;;7.82;;
22539;SDS011;11436;50.860;4.334;2022-07-01T02:52:48;18.27;;;8.52;;
22539;SDS011;11436;50.860;4.334;2022-07-01T02:55:14;17.52;;;8.40;;
22539;SDS011;11436;50.860;4.334;2022-07-01T02:57:40;16.70;;;7.20;;
22539;SDS011;11436;50.860;4.334;2022-07-01T03:00:08;16.55;;;7.80;;
22539;SDS011;11436;50.860;4.334;2022-07-01T03:02:35;15.07;;;7.68;;
22539;SDS011;11436;50.860;4.334;2022-07-01T03:05:02;16.02;;;6.88;;
22539;SDS011;11436;50.860;4.334;2022-07-01T03:07:28;15.38;;;6.85;;
22539;SDS011;11436;50.860;4.334;2022-07-01T03:09:54;17.75;;;7.93;;
22539;SDS011;11436;50.860;4.334;2022-07-01T03:12:20;14.77;;;7.25;;
22539;SDS011;11436;50.860;4.334;2022-07-01T03:15:00;18.27;;;7.90;;
22539;SDS011;11436;50.860;4.334;2022-07-01T03:17:38;14.15;;;7.10;;
22539;SDS011;11436;50.860;4.334;2022-07-01T03:20:07;14.93;;;7.55;;
22539;SDS011;11436;50.860;4.334;2022-07-01T03:22:34;17.80;;;8.20;;
22539;SDS011;11436;50.860;4.334;2022-07-01T03:25:01;15.88;;;7.95;;
22539;SDS011;11436;50.860;4.334;2022-07-01T03:27:28;18.42;;;9.48;;
22539;SDS011;11436;50.860;4.334;2022-07-01T03:29:54;20.73;;;11.43;;
22539;SDS011;11436;50.860;4.334;2022-07-01T03:32:20;20.45;;;12.90;;
22539;SDS011;11436;50.860;4.334;2022-07-01T03:34:47;21.65;;;12.88;;
22539;SDS011;11436;50.860;4.334;2022-07-01T03:37:14;26.15;;;13.43;;
22539;SDS011;11436;50.860;4.334;2022-07-01T03:39:40;19.55;;;12.52;;
22539;SDS011;11436;50.860;4.334;2022-07-01T03:42:07;15.23;;;10.88;;
22539;SDS011;11436;50.860;4.334;2022-07-01T03:44:34;15.45;;;9.68;;
22539;SDS011;11436;50.860;4.334;2022-07-01T03:47:01;17.38;;;10.98;;
22539;SDS011;11436;50.860;4.334;2022-07-01T03:49:27;14.88;;;9.85;;
22539;SDS011;11436;50.860;4.334;2022-07-01T03:51:53;14.95;;;10.68;;
22539;SDS011;11436;50.860;4.334;2022-07-01T03:54:19;18.88;;;9.82;;
22539;SDS011;11436;50.860;4.334;2022-07-01T03:57:04;22.40;;;9.75;;
22539;SDS011;11436;50.860;4.334;2022-07-01T03:59:32;19.67;;;9.23;;
22539;SDS011;11436;50.860;4.334;2022-07-01T04:02:01;10.90;;;7.45;;
22539;SDS011;11436;50.860;4.334;2022-07-01T04:04:27;14.95;;;8.05;;
22539;SDS011;11436;50.860;4.334;2022-07-01T04:06:53;16.45;;;7.93;;
22539;SDS011;11436;50.860;4.334;2022-07-01T04:09:23;15.23;;;8.27;;
22539;SDS011;11436;50.860;4.334;2022-07-01T04:11:49;20.23;;;8.13;;
22539;SDS011;11436;50.860;4.334;2022-07-01T04:14:16;17.38;;;8.07;;
22539;SDS011;11436;50.860;4.334;2022-07-01T04:16:42;18.55;;;8.43;;
22539;SDS011;11436;50.860;4.334;2022-07-01T04:19:09;14.43;;;8.18;;
22539;SDS011;11436;50.860;4.334;2022-07-01T04:21:35;17.75;;;8.13;;
22539;SDS011;11436;50.860;4.334;2022-07-01T04:24:20;16.38;;;8.20;;
22539;SDS011;11436;50.860;4.334;2022-07-01T04:26:48;15.88;;;6.88;;
22539;SDS011;11436;50.860;4.334;2022-07-01T04:29:14;14.25;;;8.05;;
22539;SDS011;11436;50.860;4.334;2022-07-01T04:31:40;12.60;;;7.35;;
22539;SDS011;11436;50.860;4.334;2022-07-01T04:34:06;13.45;;;6.20;;
22539;SDS011;11436;50.860;4.334;2022-07-01T04:36:32;9.93;;;5.57;;
22539;SDS011;11436;50.860;4.334;2022-07-01T04:38:58;13.40;;;5.78;;
22539;SDS011;11436;50.860;4.334;2022-07-01T04:41:24;7.82;;;4.60;;
22539;SDS011;11436;50.860;4.334;2022-07-01T04:44:09;11.73;;;4.35;;
22539;SDS011;11436;50.860;4.334;2022-07-01T04:46:35;11.15;;;4.60;;
22539;SDS011;11436;50.860;4.334;2022-07-01T04:49:01;11.07;;;4.38;;
22539;SDS011;11436;50.860;4.334;2022-07-01T04:51:26;14.13;;;4.25;;
22539;SDS011;11436;50.860;4.334;2022-07-01T04:53:53;15.35;;;4.65;;
22539;SDS011;11436;50.860;4.334;2022-07-01T04:56:18;12.05;;;3.55;;
22539;SDS011;11436;50.860;4.334;2022-07-01T04:58:44;15.13;;;4.05;;
22539;SDS011;11436;50.860;4.334;2022-07-01T05:01:10;7.63;;;4.00;;
22539;SDS011;11436;50.860;4.334;2022-07-01T05:03:36;13.77;;;4.13;;
22539;SDS011;11436;50.860;4.334;2022-07-01T05:06:02;11.93;;;3.78;;
22539;SDS011;11436;50.860;4.334;2022-07-01T05:08:27;9.65;;;3.83;;
22539;SDS011;11436;50.860;4.334;2022-07-01T05:10:53;11.10;;;3.75;;
22539;SDS011;11436;50.860;4.334;2022-07-01T05:13:19;8.15;;;3.20;;
22539;SDS011;11436;50.860;4.334;2022-07-01T05:15:45;9.20;;;3.45;;
22539;SDS011;11436;50.860;4.334;2022-07-01T05:18:10;7.45;;;3.65;;
22539;SDS011;11436;50.860;4.334;2022-07-01T05:20:55;10.85;;;3.90;;
22539;SDS011;11436;50.860;4.334;2022-07-01T05:23:39;7.75;;;3.03;;
22539;SDS011;11436;50.860;4.334;2022-07-01T05:26:04;8.00;;;3.20;;
22539;SDS011;11436;50.860;4.334;2022-07-01T05:28:30;13.68;;;4.05;;
22539;SDS011;11436;50.860;4.334;2022-07-01T05:30:56;12.48;;;3.97;;
22539;SDS011;11436;50.860;4.334;2022-07-01T05:33:22;9.70;;;3.20;;
22539;SDS011;11436;50.860;4.334;2022-07-01T05:35:51;16.42;;;3.83;;
22539;SDS011;11436;50.860;4.334;2022-07-01T05:38:18;8.90;;;3.70;;
22539;SDS011;11436;50.860;4.334;2022-07-01T05:40:44;14.25;;;3.15;;
22539;SDS011;11436;50.860;4.334;2022-07-01T05:43:09;8.13;;;3.40;;
22539;SDS011;11436;50.860;4.334;2022-07-01T05:45:36;9.50;;;2.78;;
22539;SDS011;11436;50.860;4.334;2022-07-01T05:48:02;13.15;;;3.50;;
22539;SDS011;11436;50.860;4.334;2022-07-01T05:50:28;6.95;;;3.15;;
22539;SDS011;11436;50.860;4.334;2022-07-01T05:52:53;13.88;;;3.20;;
22539;SDS011;11436;50.860;4.334;2022-07-01T05:55:19;7.53;;;2.88;;
22539;SDS011;11436;50.860;4.334;2022-07-01T05:57:45;11.10;;;3.53;;
22539;SDS011;11436;50.860;4.334;2022-07-01T06:00:10;6.40;;;3.10;;
22539;SDS011;11436;50.860;4.334;2022-07-01T06:02:37;5.47;;;2.75;;
22539;SDS011;11436;50.860;4.334;2022-07-01T06:05:03;11.05;;;2.70;;
22539;SDS011;11436;50.860;4.334;2022-07-01T06:07:29;11.27;;;2.72;;
22539;SDS011;11436;50.860;4.334;2022-07-01T06:09:55;6.75;;;2.60;;
22539;SDS011;11436;50.860;4.334;2022-07-01T06:12:21;14.07;;;3.22;;
22539;SDS011;11436;50.860;4.334;2022-07-01T06:14:47;8.10;;;2.95;;
22539;SDS011;11436;50.860;4.334;2022-07-01T06:17:13;10.93;;;2.67;;
22539;SDS011;11436;50.860;4.334;2022-07-01T06:19:39;6.78;;;2.80;;
22539;SDS011;11436;50.860;4.334;2022-07-01T06:22:05;9.45;;;2.40;;
22539;SDS011;11436;50.860;4.334;2022-07-01T06:24:31;5.55;;;2.70;;
22539;SDS011;11436;50.860;4.334;2022-07-01T06:26:57;5.80;;;2.60;;
22539;SDS011;11436;50.860;4.334;2022-07-01T06:29:23;8.65;;;2.58;;
22539;SDS011;11436;50.860;4.334;2022-07-01T06:31:49;8.57;;;2.60;;
22539;SDS011;11436;50.860;4.334;2022-07-01T06:34:14;9.88;;;3.22;;
22539;SDS011;11436;50.860;4.334;2022-07-01T06:36:40;13.05;;;2.72;;
22539;SDS011;11436;50.860;4.334;2022-07-01T06:39:06;5.80;;;2.53;;
22539;SDS011;11436;50.860;4.334;2022-07-01T06:41:31;7.20;;;2.40;;
22539;SDS011;11436;50.860;4.334;2022-07-01T06:43:58;12.15;;;2.08;;
22539;SDS011;11436;50.860;4.334;2022-07-01T06:46:25;8.93;;;2.10;;
22539;SDS011;11436;50.860;4.334;2022-07-01T06:48:52;6.00;;;2.05;;
22539;SDS011;11436;50.860;4.334;2022-07-01T06:51:17;11.02;;;2.05;;
22539;SDS011;11436;50.860;4.334;2022-07-01T06:53:43;10.10;;;2.50;;
22539;SDS011;11436;50.860;4.334;2022-07-01T06:56:12;7.38;;;2.22;;
22539;SDS011;11436;50.860;4.334;2022-07-01T06:58:38;12.60;;;2.20;;
22539;SDS011;11436;50.860;4.334;2022-07-01T07:01:04;7.38;;;2.97;;
22539;SDS011;11436;50.860;4.334;2022-07-01T07:03:30;7.95;;;2.40;;
22539;SDS011;11436;50.860;4.334;2022-07-01T07:05:59;13.77;;;2.60;;
22539;SDS011;11436;50.860;4.334;2022-07-01T07:08:26;6.55;;;2.10;;
22539;SDS011;11436;50.860;4.334;2022-07-01T07:10:52;9.10;;;1.95;;
22539;SDS011;11436;50.860;4.334;2022-07-01T07:13:17;8.00;;;1.45;;
22539;SDS011;11436;50.860;4.334;2022-07-01T07:15:43;6.13;;;1.98;;
22539;SDS011;11436;50.860;4.334;2022-07-01T07:18:10;7.80;;;1.80;;
22539;SDS011;11436;50.860;4.334;2022-07-01T07:20:36;9.30;;;1.77;;
22539;SDS011;11436;50.860;4.334;2022-07-01T07:23:02;6.70;;;1.77;;
22539;SDS011;11436;50.860;4.334;2022-07-01T07:25:28;9.48;;;1.90;;
22539;SDS011;11436;50.860;4.334;2022-07-01T07:27:54;4.95;;;1.42;;
22539;SDS011;11436;50.860;4.334;2022-07-01T07:30:20;11.57;;;1.80;;
22539;SDS011;11436;50.860;4.334;2022-07-01T07:32:45;8.13;;;2.05;;
22539;SDS011;11436;50.860;4.334;2022-07-01T07:35:11;6.72;;;1.70;;
22539;SDS011;11436;50.860;4.334;2022-07-01T07:37:38;9.77;;;2.22;;
22539;SDS011;11436;50.860;4.334;2022-07-01T07:40:04;5.80;;;1.48;;
22539;SDS011;11436;50.860;4.334;2022-07-01T07:42:33;8.55;;;1.48;;
22539;SDS011;11436;50.860;4.334;2022-07-01T07:44:58;4.70;;;1.25;;
22539;SDS011;11436;50.860;4.334;2022-07-01T07:47:24;8.52;;;1.92;;
22539;SDS011;11436;50.860;4.334;2022-07-01T07:49:50;8.38;;;1.73;;
22539;SDS011;11436;50.860;4.334;2022-07-01T07:52:16;8.55;;;1.63;;
22539;SDS011;11436;50.860;4.334;2022-07-01T07:54:42;7.05;;;1.55;;
22539;SDS011;11436;50.860;4.334;2022-07-01T07:57:07;6.78;;;1.75;;
22539;SDS011;11436;50.860;4.334;2022-07-01T07:59:34;8.70;;;1.65;;
22539;SDS011;11436;50.860;4.334;2022-07-01T08:02:00;8.00;;;1.65;;
22539;SDS011;11436;50.860;4.334;2022-07-01T08:04:26;5.25;;;1.50;;
22539;SDS011;11436;50.860;4.334;2022-07-01T08:06:52;4.68;;;1.27;;
22539;SDS011;11436;50.860;4.334;2022-07-01T08:09:18;6.47;;;1.50;;
22539;SDS011;11436;50.860;4.334;2022-07-01T08:11:43;3.65;;;1.20;;
22539;SDS011;11436;50.860;4.334;2022-07-01T08:14:09;12.20;;;1.95;;
22539;SDS011;11436;50.860;4.334;2022-07-01T08:16:35;8.73;;;1.60;;
22539;SDS011;11436;50.860;4.334;2022-07-01T08:19:02;6.28;;;1.90;;
22539;SDS011;11436;50.860;4.334;2022-07-01T08:21:28;6.97;;;1.20;;
22539;SDS011;11436;50.860;4.334;2022-07-01T08:23:54;7.82;;;1.55;;
22539;SDS011;11436;50.860;4.334;2022-07-01T08:26:20;6.00;;;1.40;;
22539;SDS011;11436;50.860;4.334;2022-07-01T08:28:46;3.88;;;1.10;;
22539;SDS011;11436;50.860;4.334;2022-07-01T08:31:12;9.88;;;1.70;;
22539;SDS011;11436;50.860;4.334;2022-07-01T08:33:38;12.07;;;1.90;;
22539;SDS011;11436;50.860;4.334;2022-07-01T08:36:04;5.20;;;1.52;;
22539;SDS011;11436;50.860;4.334;2022-07-01T08:38:31;8.85;;;1.55;;
22539;SDS011;11436;50.860;4.334;2022-07-01T08:40:57;3.58;;;1.23;;
22539;SDS011;11436;50.860;4.334;2022-07-01T08:43:23;3.92;;;1.27;;
22539;SDS011;11436;50.860;4.334;2022-07-01T08:45:50;8.32;;;2.30;;
22539;SDS011;11436;50.860;4.334;2022-07-01T08:48:17;5.97;;;1.20;;
22539;SDS011;11436;50.860;4.334;2022-07-01T08:50:42;8.88;;;1.50;;
22539;SDS011;11436;50.860;4.334;2022-07-01T08:53:10;6.45;;;1.35;;
22539;SDS011;11436;50.860;4.334;2022-07-01T08:55:37;3.40;;;0.85;;
22539;SDS011;11436;50.860;4.334;2022-07-01T08:58:23;7.07;;;1.50;;
22539;SDS011;11436;50.860;4.334;2022-07-01T09:00:50;3.55;;;0.90;;
22539;SDS011;11436;50.860;4.334;2022-07-01T09:03:15;5.82;;;1.30;;
22539;SDS011;11436;50.860;4.334;2022-07-01T09:05:50;8.30;;;1.30;;
22539;SDS011;11436;50.860;4.334;2022-07-01T09:08:17;5.57;;;1.10;;
22539;SDS011;11436;50.860;4.334;2022-07-01T09:10:43;7.32;;;1.80;;
22539;SDS011;11436;50.860;4.334;2022-07-01T09:13:11;5.95;;;1.00;;
22539;SDS011;11436;50.860;4.334;2022-07-01T09:15:38;4.68;;;1.00;;
22539;SDS011;11436;50.860;4.334;2022-07-01T09:18:09;6.88;;;1.38;;
22539;SDS011;11436;50.860;4.334;2022-07-01T09:20:38;7.18;;;1.38;;
22539;SDS011;11436;50.860;4.334;2022-07-01T09:23:06;4.40;;;1.20;;
22539;SDS011;11436;50.860;4.334;2022-07-01T09:25:39;9.05;;;0.98;;
22539;SDS011;11436;50.860;4.334;2022-07-01T09:30:40;4.40;;;1.38;;
22539;SDS011;11436;50.860;4.334;2022-07-01T09:33:08;4.20;;;1.20;;
22539;SDS011;11436;50.860;4.334;2022-07-01T09:35:36;6.00;;;1.10;;
22539;SDS011;11436;50.860;4.334;2022-07-01T09:38:03;5.38;;;1.20;;
22539;SDS011;11436;50.860;4.334;2022-07-01T09:40:50;6.63;;;1.45;;
22539;SDS011;11436;50.860;4.334;2022-07-01T09:43:18;4.97;;;1.23;;
22539;SDS011;11436;50.860;4.334;2022-07-01T09:46:04;5.57;;;1.33;;
22539;SDS011;11436;50.860;4.334;2022-07-01T09:50:58;4.55;;;1.38;;
22539;SDS011;11436;50.860;4.334;2022-07-01T09:53:24;2.97;;;1.10;;
22539;SDS011;11436;50.860;4.334;2022-07-01T09:55:50;10.00;;;1.80;;
22539;SDS011;11436;50.860;4.334;2022-07-01T09:58:16;5.28;;;1.35;;
22539;SDS011;11436;50.860;4.334;2022-07-01T10:00:42;8.40;;;1.45;;
22539;SDS011;11436;50.860;4.334;2022-07-01T10:03:09;4.53;;;1.50;;
22539;SDS011;11436;50.860;4.334;2022-07-01T10:05:39;3.85;;;0.88;;
22539;SDS011;11436;50.860;4.334;2022-07-01T10:08:22;3.50;;;1.10;;
22539;SDS011;11436;50.860;4.334;2022-07-01T10:10:50;6.15;;;1.50;;
22539;SDS011;11436;50.860;4.334;2022-07-01T10:13:35;6.53;;;1.52;;
22539;SDS011;11436;50.860;4.334;2022-07-01T10:16:01;5.90;;;1.20;;
22539;SDS011;11436;50.860;4.334;2022-07-01T10:18:29;5.55;;;1.00;;
22539;SDS011;11436;50.860;4.334;2022-07-01T10:20:55;5.28;;;1.33;;
22539;SDS011;11436;50.860;4.334;2022-07-01T10:23:23;5.95;;;1.23;;
22539;SDS011;11436;50.860;4.334;2022-07-01T10:26:08;6.10;;;1.38;;
22539;SDS011;11436;50.860;4.334;2022-07-01T10:31:13;4.25;;;0.88;;
22539;SDS011;11436;50.860;4.334;2022-07-01T10:33:49;2.17;;;0.82;;
22539;SDS011;11436;50.860;4.334;2022-07-01T10:41:28;3.10;;;0.90;;
22539;SDS011;11436;50.860;4.334;2022-07-01T10:43:57;4.82;;;1.05;;
22539;SDS011;11436;50.860;4.334;2022-07-01T10:47:05;3.10;;;1.05;;
22539;SDS011;11436;50.860;4.334;2022-07-01T10:49:19;3.70;;;0.80;;
22539;SDS011;11436;50.860;4.334;2022-07-01T11:04:45;2.55;;;0.80;;
22539;SDS011;11436;50.860;4.334;2022-07-01T11:07:11;3.20;;;1.00;;
22539;SDS011;11436;50.860;4.334;2022-07-01T11:09:37;4.85;;;0.68;;
22539;SDS011;11436;50.860;4.334;2022-07-01T11:12:03;2.33;;;0.73;;
22539;SDS011;11436;50.860;4.334;2022-07-01T11:14:39;5.28;;;0.75;;
22539;SDS011;11436;50.860;4.334;2022-07-01T11:17:06;5.07;;;0.90;;
22539;SDS011;11436;50.860;4.334;2022-07-01T11:19:33;6.13;;;0.90;;
22539;SDS011;11436;50.860;4.334;2022-07-01T11:21:59;5.68;;;1.08;;
22539;SDS011;11436;50.860;4.334;2022-07-01T11:24:25;6.60;;;1.05;;
22539;SDS011;11436;50.860;4.334;2022-07-01T11:26:54;2.17;;;0.85;;
22539;SDS011;11436;50.860;4.334;2022-07-01T11:29:24;5.38;;;0.85;;
22539;SDS011;11436;50.860;4.334;2022-07-01T11:31:51;4.15;;;0.93;;
22539;SDS011;11436;50.860;4.334;2022-07-01T11:34:17;3.83;;;0.80;;
22539;SDS011;11436;50.860;4.334;2022-07-01T11:36:44;4.60;;;0.80;;
22539;SDS011;11436;50.860;4.334;2022-07-01T11:39:29;3.65;;;1.08;;
22539;SDS011;11436;50.860;4.334;2022-07-01T11:42:00;3.00;;;0.73;;
22539;SDS011;11436;50.860;4.334;2022-07-01T11:44:33;3.45;;;0.75;;
22539;SDS011;11436;50.860;4.334;2022-07-01T11:47:04;3.15;;;0.80;;
22539;SDS011;11436;50.860;4.334;2022-07-01T11:49:42;4.40;;;1.13;;
22539;SDS011;11436;50.860;4.334;2022-07-01T11:52:10;2.17;;;0.73;;
22539;SDS011;11436;50.860;4.334;2022-07-01T11:54:39;3.78;;;0.90;;
22539;SDS011;11436;50.860;4.334;2022-07-01T11:57:19;3.47;;;0.60;;
22539;SDS011;11436;50.860;4.334;2022-07-01T11:59:47;4.97;;;0.80;;
22539;SDS011;11436;50.860;4.334;2022-07-01T12:02:14;2.10;;;0.60;;
22539;SDS011;11436;50.860;4.334;2022-07-01T12:04:42;1.38;;;0.55;;
22539;SDS011;11436;50.860;4.334;2022-07-01T12:07:08;1.95;;;0.68;;
22539;SDS011;11436;50.860;4.334;2022-07-01T12:09:36;3.25;;;0.70;;
22539;SDS011;11436;50.860;4.334;2022-07-01T12:12:02;3.58;;;0.88;;
22539;SDS011;11436;50.860;4.334;2022-07-01T12:14:32;2.10;;;0.68;;
22539;SDS011;11436;50.860;4.334;2022-07-01T12:17:01;2.28;;;0.75;;
22539;SDS011;11436;50.860;4.334;2022-07-01T12:19:39;2.65;;;0.80;;
22539;SDS011;11436;50.860;4.334;2022-07-01T12:22:10;5.25;;;0.90;;
22539;SDS011;11436;50.860;4.334;2022-07-01T12:24:38;3.17;;;0.88;;
22539;SDS011;11436;50.860;4.334;2022-07-01T12:27:05;1.40;;;0.77;;
22539;SDS011;11436;50.860;4.334;2022-07-01T12:32:20;3.13;;;0.60;;
22539;SDS011;11436;50.860;4.334;2022-07-01T12:34:54;1.98;;;0.75;;
22539;SDS011;11436;50.860;4.334;2022-07-01T12:37:32;4.20;;;0.80;;
22539;SDS011;11436;50.860;4.334;2022-07-01T12:40:02;4.75;;;0.90;;
22539;SDS011;11436;50.860;4.334;2022-07-01T12:42:34;6.38;;;0.82;;
22539;SDS011;11436;50.860;4.334;2022-07-01T12:45:06;5.32;;;0.95;;
22539;SDS011;11436;50.860;4.334;2022-07-01T12:47:35;3.90;;;0.80;;
22539;SDS011;11436;50.860;4.334;2022-07-01T12:50:21;6.15;;;1.00;;
22539;SDS011;11436;50.860;4.334;2022-07-01T12:53:05;5.10;;;0.63;;
22539;SDS011;11436;50.860;4.334;2022-07-01T12:55:39;1.20;;;0.60;;
22539;SDS011;11436;50.860;4.334;2022-07-01T12:58:11;1.77;;;0.57;;
22539;SDS011;11436;50.860;4.334;2022-07-01T13:00:39;6.13;;;1.20;;
22539;SDS011;11436;50.860;4.334;2022-07-01T13:03:06;3.22;;;0.60;;
22539;SDS011;11436;50.860;4.334;2022-07-01T13:05:33;3.95;;;0.80;;
22539;SDS011;11436;50.860;4.334;2022-07-01T13:08:00;3.35;;;0.80;;
22539;SDS011;11436;50.860;4.334;2022-07-01T13:10:26;4.85;;;0.80;;
22539;SDS011;11436;50.860;4.334;2022-07-01T13:12:52;2.33;;;0.90;;
22539;SDS011;11436;50.860;4.334;2022-07-01T13:15:18;4.03;;;0.60;;
22539;SDS011;11436;50.860;4.334;2022-07-01T13:17:45;2.72;;;0.80;;
22539;SDS011;11436;50.860;4.334;2022-07-01T13:20:11;5.32;;;0.90;;
22539;SDS011;11436;50.860;4.334;2022-07-01T13:22:38;3.92;;;0.75;;
22539;SDS011;11436;50.860;4.334;2022-07-01T13:25:05;6.07;;;0.95;;
22539;SDS011;11436;50.860;4.334;2022-07-01T13:27:32;1.73;;;0.70;;
22539;SDS011;11436;50.860;4.334;2022-07-01T13:29:58;6.07;;;1.02;;
22539;SDS011;11436;50.860;4.334;2022-07-01T13:32:24;4.72;;;1.38;;
22539;SDS011;11436;50.860;4.334;2022-07-01T13:34:55;4.25;;;1.52;;
22539;SDS011;11436;50.860;4.334;2022-07-01T13:37:21;1.70;;;0.85;;
22539;SDS011;11436;50.860;4.334;2022-07-01T13:39:47;2.65;;;0.80;;
22539;SDS011;11436;50.860;4.334;2022-07-01T13:42:13;2.03;;;0.57;;
22539;SDS011;11436;50.860;4.334;2022-07-01T13:44:38;6.30;;;0.98;;
22539;SDS011;11436;50.860;4.334;2022-07-01T13:47:04;3.35;;;0.65;;
22539;SDS011;11436;50.860;4.334;2022-07-01T13:49:37;1.90;;;0.73;;
22539;SDS011;11436;50.860;4.334;2022-07-01T13:52:04;3.10;;;0.95;;
22539;SDS011;11436;50.860;4.334;2022-07-01T13:54:30;5.97;;;0.90;;
22539;SDS011;11436;50.860;4.334;2022-07-01T13:56:56;2.13;;;0.60;;
22539;SDS011;11436;50.860;4.334;2022-07-01T13:59:21;2.75;;;1.15;;
22539;SDS011;11436;50.860;4.334;2022-07-01T14:01:47;8.70;;;5.60;;
22539;SDS011;11436;50.860;4.334;2022-07-01T14:04:13;3.42;;;0.80;;
22539;SDS011;11436;50.860;4.334;2022-07-01T14:06:39;4.72;;;0.70;;
22539;SDS011;11436;50.860;4.334;2022-07-01T14:09:04;4.18;;;0.82;;
22539;SDS011;11436;50.860;4.334;2022-07-01T14:11:30;4.45;;;0.82;;
22539;SDS011;11436;50.860;4.334;2022-07-01T14:13:56;4.75;;;0.70;;
22539;SDS011;11436;50.860;4.334;2022-07-01T14:16:22;2.53;;;0.73;;
22539;SDS011;11436;50.860;4.334;2022-07-01T14:18:48;4.47;;;0.88;;
22539;SDS011;11436;50.860;4.334;2022-07-01T14:21:16;11.50;;;8.98;;
22539;SDS011;11436;50.860;4.334;2022-07-01T14:23:43;3.28;;;1.00;;
22539;SDS011;11436;50.860;4.334;2022-07-01T14:26:09;3.88;;;0.98;;
22539;SDS011;11436;50.860;4.334;2022-07-01T14:28:35;4.75;;;1.20;;
22539;SDS011;11436;50.860;4.334;2022-07-01T14:31:00;4.95;;;1.92;;
22539;SDS011;11436;50.860;4.334;2022-07-01T14:33:26;6.32;;;1.40;;
22539;SDS011;11436;50.860;4.334;2022-07-01T14:35:52;7.03;;;1.42;;
22539;SDS011;11436;50.860;4.334;2022-07-01T14:38:18;3.22;;;1.00;;
22539;SDS011;11436;50.860;4.334;2022-07-01T14:40:44;4.95;;;0.98;;
22539;SDS011;11436;50.860;4.334;2022-07-01T14:43:09;4.05;;;0.95;;
22539;SDS011;11436;50.860;4.334;2022-07-01T14:45:35;2.30;;;0.60;;
22539;SDS011;11436;50.860;4.334;2022-07-01T14:48:01;3.58;;;0.80;;
22539;SDS011;11436;50.860;4.334;2022-07-01T14:50:27;14.77;;;1.90;;
22539;SDS011;11436;50.860;4.334;2022-07-01T14:52:53;3.40;;;1.08;;
22539;SDS011;11436;50.860;4.334;2022-07-01T14:55:19;6.90;;;1.02;;
22539;SDS011;11436;50.860;4.334;2022-07-01T14:57:44;3.00;;;1.05;;
22539;SDS011;11436;50.860;4.334;2022-07-01T15:00:10;2.30;;;0.65;;
22539;SDS011;11436;50.860;4.334;2022-07-01T15:02:37;5.75;;;0.90;;
22539;SDS011;11436;50.860;4.334;2022-07-01T15:05:03;3.75;;;1.10;;
22539;SDS011;11436;50.860;4.334;2022-07-01T15:07:29;2.10;;;0.98;;
22539;SDS011;11436;50.860;4.334;2022-07-01T15:09:55;4.95;;;0.80;;
22539;SDS011;11436;50.860;4.334;2022-07-01T15:12:28;3.53;;;1.00;;